createdAt,value
2022-08-23T00:01:35.664Z,45.69
2022-08-23T00:04:02.056Z,45.74
2022-08-23T00:06:28.417Z,45.52
2022-08-23T00:08:54.778Z,45.97
2022-08-23T00:11:21.141Z,45.83
2022-08-23T00:13:48.487Z,45.96
2022-08-23T00:16:14.912Z,45.70
2022-08-23T00:18:41.270Z,45.85
2022-08-23T00:21:14.076Z,45.67
2022-08-23T00:23:40.436Z,45.66
2022-08-23T00:26:06.839Z,45.58
2022-08-23T00:28:33.216Z,45.45
2022-08-23T00:30:59.572Z,45.62
2022-08-23T00:33:25.941Z,45.86
2022-08-23T00:35:52.329Z,45.58
2022-08-23T00:38:34.525Z,45.80
2022-08-23T00:41:01.296Z,45.48
2022-08-23T00:43:27.659Z,45.16
2022-08-23T00:45:54.023Z,45.54
2022-08-23T00:48:20.374Z,45.54
2022-08-23T00:50:46.729Z,45.64
2022-08-23T00:53:13.095Z,45.70
2022-08-23T00:55:39.457Z,45.36
2022-08-23T00:58:05.816Z,45.71
2022-08-23T01:00:32.193Z,46.16
2022-08-23T01:02:58.573Z,45.51
2022-08-23T01:05:24.947Z,45.34
2022-08-23T01:07:51.317Z,45.41
2022-08-23T01:10:20.086Z,45.63
2022-08-23T01:12:47.514Z,45.40
2022-08-23T01:15:13.864Z,45.57
2022-08-23T01:17:40.219Z,45.48
2022-08-23T01:20:06.600Z,45.64
2022-08-23T01:22:32.974Z,45.56
2022-08-23T01:25:08.167Z,45.38
2022-08-23T01:27:35.217Z,45.72
2022-08-23T01:30:01.616Z,45.50
2022-08-23T01:32:27.980Z,45.45
2022-08-23T01:34:54.360Z,45.43
2022-08-23T01:37:20.718Z,45.55
2022-08-23T01:39:47.104Z,45.77
2022-08-23T01:42:13.481Z,45.52
2022-08-23T01:44:39.847Z,45.59
2022-08-23T01:47:06.200Z,45.45
2022-08-23T01:49:32.569Z,45.38
2022-08-23T01:51:58.950Z,45.10
2022-08-23T01:54:25.313Z,45.27
2022-08-23T01:56:51.674Z,45.12
2022-08-23T01:59:18.039Z,45.35
2022-08-23T02:01:44.467Z,45.31
2022-08-23T02:04:10.883Z,45.45
2022-08-23T02:06:37.234Z,45.27
2022-08-23T02:09:03.908Z,45.11
2022-08-23T02:11:30.322Z,44.99
2022-08-23T02:13:56.702Z,45.20
2022-08-23T02:16:23.066Z,45.43
2022-08-23T02:18:49.430Z,45.26
2022-08-23T02:21:15.801Z,45.35
2022-08-23T02:23:42.184Z,44.91
2022-08-23T02:26:08.539Z,45.21
2022-08-23T02:28:34.889Z,45.02
2022-08-23T02:31:01.247Z,44.99
2022-08-23T02:33:28.802Z,44.99
2022-08-23T02:35:55.165Z,45.08
2022-08-23T02:38:21.524Z,45.18
2022-08-23T02:40:47.897Z,44.86
2022-08-23T02:43:19.502Z,45.24
2022-08-23T02:45:45.862Z,44.60
2022-08-23T02:48:12.233Z,44.92
2022-08-23T02:50:38.589Z,44.64
2022-08-23T02:53:04.961Z,44.48
2022-08-23T02:55:31.312Z,44.80
2022-08-23T02:57:57.705Z,44.95
2022-08-23T03:00:24.093Z,44.97
2022-08-23T03:02:50.446Z,44.78
2022-08-23T03:05:16.805Z,44.57
2022-08-23T03:07:43.159Z,44.63
2022-08-23T03:10:09.512Z,44.38
2022-08-23T03:12:35.873Z,44.57
2022-08-23T03:15:02.245Z,44.63
2022-08-23T03:17:28.608Z,44.83
2022-08-23T03:19:54.968Z,45.02
2022-08-23T03:22:21.319Z,44.67
2022-08-23T03:24:47.675Z,44.82
2022-08-23T03:27:14.046Z,44.50
2022-08-23T03:29:40.403Z,44.87
2022-08-23T03:32:06.764Z,44.99
2022-08-23T03:34:33.121Z,44.55
2022-08-23T03:36:59.489Z,44.74
2022-08-23T03:39:25.867Z,44.93
2022-08-23T03:41:52.238Z,44.78
2022-08-23T03:44:18.633Z,45.00
2022-08-23T03:46:44.988Z,44.59
2022-08-23T03:49:11.356Z,44.65
2022-08-23T03:51:37.709Z,44.70
2022-08-23T03:54:04.069Z,44.81
2022-08-23T03:56:30.426Z,44.75
2022-08-23T03:58:56.780Z,44.95
2022-08-23T04:01:26.619Z,44.61
2022-08-23T04:03:55.040Z,44.68
2022-08-23T04:06:21.409Z,44.69
2022-08-23T04:08:47.771Z,44.73
2022-08-23T04:11:14.128Z,44.78
2022-08-23T04:13:40.492Z,45.08
2022-08-23T04:16:06.858Z,44.79
2022-08-23T04:18:33.213Z,44.91
2022-08-23T04:20:59.568Z,44.73
2022-08-23T04:23:25.931Z,44.74
2022-08-23T04:25:52.293Z,44.96
2022-08-23T04:28:18.780Z,44.80
2022-08-23T04:30:45.172Z,44.95
2022-08-23T04:33:17.723Z,44.89
2022-08-23T04:35:44.504Z,44.99
2022-08-23T04:38:24.483Z,44.58
2022-08-23T04:40:51.718Z,44.60
2022-08-23T04:43:18.076Z,44.63
2022-08-23T04:45:44.428Z,44.68
2022-08-23T04:48:12.178Z,45.14
2022-08-23T04:50:38.641Z,44.67
2022-08-23T04:53:05.010Z,45.11
2022-08-23T04:55:31.364Z,44.90
2022-08-23T04:58:02.079Z,44.54
2022-08-23T05:00:28.643Z,44.86
2022-08-23T05:02:55.008Z,44.97
2022-08-23T05:05:21.371Z,44.94
2022-08-23T05:07:47.757Z,45.24
2022-08-23T05:10:14.124Z,45.06
2022-08-23T05:12:40.488Z,45.45
2022-08-23T05:15:06.848Z,45.88
2022-08-23T05:17:33.214Z,45.64
2022-08-23T05:19:59.577Z,45.29
2022-08-23T05:22:25.941Z,45.50
2022-08-23T05:24:52.293Z,45.77
2022-08-23T05:27:18.651Z,46.31
2022-08-23T05:29:44.999Z,45.83
2022-08-23T05:32:11.347Z,45.62
2022-08-23T05:34:37.697Z,45.58
2022-08-23T05:37:04.052Z,45.61
2022-08-23T05:39:30.414Z,45.73
2022-08-23T05:42:03.195Z,46.20
2022-08-23T05:44:29.556Z,46.18
2022-08-23T05:47:01.405Z,46.53
2022-08-23T05:49:28.157Z,47.28
2022-08-23T05:51:54.522Z,46.93
2022-08-23T05:54:20.901Z,46.83
2022-08-23T05:56:47.259Z,46.43
2022-08-23T05:59:13.604Z,46.45
2022-08-23T06:01:39.960Z,46.47
2022-08-23T06:04:08.021Z,46.13
2022-08-23T06:06:36.431Z,46.25
2022-08-23T06:09:04.180Z,46.08
2022-08-23T06:11:30.546Z,46.66
2022-08-23T06:13:56.952Z,46.51
2022-08-23T06:16:23.372Z,46.47
2022-08-23T06:18:49.750Z,46.16
2022-08-23T06:21:16.108Z,46.19
2022-08-23T06:23:42.483Z,45.91
2022-08-23T06:26:08.845Z,46.16
2022-08-23T06:28:35.247Z,46.95
2022-08-23T06:31:16.971Z,48.33
2022-08-23T06:33:43.491Z,48.42
2022-08-23T06:36:09.879Z,48.63
2022-08-23T06:38:36.247Z,48.55
2022-08-23T06:41:02.642Z,48.59
2022-08-23T06:43:29.038Z,48.41
2022-08-23T06:45:58.383Z,47.43
2022-08-23T06:48:24.912Z,47.71
2022-08-23T06:50:51.277Z,46.39
2022-08-23T06:53:17.650Z,46.39
2022-08-23T06:55:44.091Z,46.11
2022-08-23T06:58:10.486Z,45.66
2022-08-23T07:00:39.723Z,45.66
2022-08-23T07:03:06.161Z,45.51
2022-08-23T07:05:32.610Z,45.54
2022-08-23T07:07:59.035Z,45.28
2022-08-23T07:10:25.431Z,45.74
2022-08-23T07:12:51.808Z,45.27
2022-08-23T07:15:18.174Z,45.33
2022-08-23T07:17:44.532Z,45.74
2022-08-23T07:20:10.921Z,45.76
2022-08-23T07:22:37.310Z,45.64
2022-08-23T07:25:03.675Z,44.69
2022-08-23T07:27:30.037Z,45.13
2022-08-23T07:29:56.410Z,44.94
2022-08-23T07:32:22.763Z,45.29
2022-08-23T07:34:49.214Z,44.83
2022-08-23T07:37:15.891Z,44.94
2022-08-23T07:39:42.343Z,44.72
2022-08-23T07:42:23.757Z,45.07
2022-08-23T07:44:51.670Z,44.62
2022-08-23T07:50:12.048Z,44.00
2022-08-23T07:52:41.098Z,44.22
2022-08-23T07:55:07.832Z,44.60
2022-08-23T07:57:34.213Z,44.22
2022-08-23T08:00:00.570Z,44.65
2022-08-23T08:02:26.961Z,44.70
2022-08-23T08:04:53.333Z,44.53
2022-08-23T08:07:21.101Z,44.23
2022-08-23T08:09:47.979Z,44.34
2022-08-23T08:12:14.338Z,44.35
2022-08-23T08:14:41.813Z,43.97
2022-08-23T08:17:08.220Z,43.97
2022-08-23T08:19:34.595Z,43.66
2022-08-23T08:22:00.988Z,43.48
2022-08-23T08:24:27.344Z,43.89
2022-08-23T08:26:53.696Z,44.10
2022-08-23T08:29:20.077Z,43.81
2022-08-23T08:31:46.453Z,44.42
2022-08-23T08:34:12.816Z,44.31
2022-08-23T08:36:39.348Z,43.98
2022-08-23T08:39:05.762Z,43.73
2022-08-23T08:41:32.892Z,43.72
2022-08-23T08:43:59.271Z,44.13
2022-08-23T08:46:25.931Z,44.24
2022-08-23T08:48:52.509Z,44.19
2022-08-23T08:51:18.860Z,44.47
2022-08-23T08:53:45.223Z,45.12
2022-08-23T08:56:11.605Z,44.63
2022-08-23T08:58:42.933Z,44.70
2022-08-23T09:01:09.301Z,44.83
2022-08-23T09:03:35.714Z,44.63
2022-08-23T09:06:02.096Z,44.60
2022-08-23T09:08:28.456Z,44.41
2022-08-23T09:10:54.830Z,44.46
2022-08-23T09:13:24.900Z,44.22
2022-08-23T09:15:51.292Z,44.14
2022-08-23T09:18:17.675Z,44.79
2022-08-23T09:20:44.045Z,44.73
2022-08-23T09:23:10.400Z,44.43
2022-08-23T09:25:36.760Z,44.09
2022-08-23T09:28:03.111Z,43.90
2022-08-23T09:30:29.468Z,44.05
2022-08-23T09:32:55.824Z,44.50
2022-08-23T09:35:22.197Z,44.18
2022-08-23T09:37:48.561Z,44.22
2022-08-23T09:40:16.342Z,44.51
2022-08-23T09:42:44.220Z,44.57
2022-08-23T09:45:11.075Z,44.70
2022-08-23T09:47:43.286Z,44.76
2022-08-23T09:50:11.271Z,44.60
2022-08-23T09:52:37.628Z,44.72
2022-08-23T09:55:03.985Z,44.26
2022-08-23T09:57:30.344Z,44.28
2022-08-23T09:59:56.735Z,43.90
2022-08-23T10:02:23.097Z,43.53
2022-08-23T10:04:49.499Z,43.51
2022-08-23T10:07:15.889Z,43.73
2022-08-23T10:09:42.278Z,43.11
2022-08-23T10:12:08.644Z,42.90
2022-08-23T10:14:36.728Z,42.88
2022-08-23T10:17:03.624Z,42.79
2022-08-23T10:19:29.985Z,42.33
2022-08-23T10:21:57.273Z,42.72
2022-08-23T10:24:23.635Z,43.01
2022-08-23T10:26:50.003Z,42.21
2022-08-23T10:29:16.358Z,42.05
2022-08-23T10:31:43.505Z,42.48
2022-08-23T10:34:09.937Z,43.02
2022-08-23T10:36:36.288Z,43.08
2022-08-23T10:39:02.646Z,42.90
2022-08-23T10:41:29.016Z,42.58
2022-08-23T10:43:55.377Z,42.77
2022-08-23T10:46:21.806Z,42.21
2022-08-23T10:48:48.188Z,42.13
2022-08-23T10:51:14.551Z,42.88
2022-08-23T10:53:41.139Z,43.37
2022-08-23T10:56:07.506Z,43.04
2022-08-23T10:58:33.868Z,42.83
2022-08-23T11:01:00.732Z,43.07
2022-08-23T11:03:29.095Z,43.43
2022-08-23T11:05:55.547Z,42.45
2022-08-23T11:08:21.908Z,42.64
2022-08-23T11:10:53.566Z,42.06
2022-08-23T11:13:23.248Z,42.13
2022-08-23T11:15:49.646Z,42.12
2022-08-23T11:18:16.031Z,40.01
2022-08-23T11:20:42.416Z,40.81
2022-08-23T11:23:08.987Z,41.17
2022-08-23T11:25:35.348Z,40.56
2022-08-23T11:28:01.873Z,40.55
2022-08-23T11:30:28.389Z,39.95
2022-08-23T11:32:54.896Z,40.44
2022-08-23T11:35:21.346Z,40.70
2022-08-23T11:37:47.961Z,41.13
2022-08-23T11:40:18.400Z,39.76
2022-08-23T11:42:44.971Z,39.27
2022-08-23T11:45:11.822Z,38.55
2022-08-23T11:47:39.449Z,39.64
2022-08-23T11:50:05.861Z,39.76
2022-08-23T11:52:32.213Z,38.85
2022-08-23T11:54:58.570Z,38.88
2022-08-23T11:57:24.949Z,38.87
2022-08-23T11:59:51.318Z,38.23
2022-08-23T12:02:18.097Z,38.61
2022-08-23T12:04:47.369Z,38.43
2022-08-23T12:07:14.097Z,38.55
2022-08-23T12:09:40.450Z,38.88
2022-08-23T12:12:06.808Z,39.16
2022-08-23T12:14:33.167Z,39.25
2022-08-23T12:16:59.522Z,39.14
2022-08-23T12:19:25.932Z,39.54
2022-08-23T12:21:52.309Z,39.15
2022-08-23T12:24:18.673Z,39.79
2022-08-23T12:26:45.043Z,39.93
2022-08-23T12:29:11.440Z,39.79
2022-08-23T12:31:37.866Z,40.13
2022-08-23T12:34:04.282Z,40.49
2022-08-23T12:36:30.648Z,40.16
2022-08-23T12:38:57.014Z,40.41
2022-08-23T12:41:23.395Z,40.74
2022-08-23T12:43:49.764Z,40.58
2022-08-23T12:46:16.152Z,40.87
2022-08-23T12:48:42.526Z,41.03
2022-08-23T12:51:08.889Z,40.70
2022-08-23T12:53:35.265Z,41.11
2022-08-23T12:56:01.637Z,41.29
2022-08-23T12:58:31.648Z,41.12
2022-08-23T13:00:59.714Z,41.56
2022-08-23T13:03:26.114Z,41.48
2022-08-23T13:05:52.738Z,41.38
2022-08-23T13:08:19.222Z,41.74
2022-08-23T13:10:49.178Z,41.38
2022-08-23T13:13:15.555Z,41.62
2022-08-23T13:15:41.947Z,41.86
2022-08-23T13:18:08.347Z,41.64
2022-08-23T13:20:34.710Z,41.69
2022-08-23T13:23:01.289Z,42.07
2022-08-23T13:25:29.841Z,42.14
2022-08-23T13:27:58.167Z,41.46
2022-08-23T13:30:24.539Z,41.70
2022-08-23T13:32:50.920Z,42.90
2022-08-23T13:35:17.526Z,44.46
2022-08-23T13:37:45.701Z,42.16
2022-08-23T13:40:13.206Z,41.72
2022-08-23T13:42:39.598Z,41.71
2022-08-23T13:45:05.976Z,41.41
2022-08-23T13:47:32.345Z,41.55
2022-08-23T13:50:07.325Z,40.80
2022-08-23T13:52:56.630Z,41.65
2022-08-23T13:55:22.496Z,42.44
2022-08-23T13:57:48.856Z,41.54
2022-08-23T14:00:19.289Z,41.95
2022-08-23T14:02:46.030Z,41.83
2022-08-23T14:05:12.414Z,41.12
2022-08-23T14:07:38.817Z,41.84
2022-08-23T14:10:05.177Z,41.14
2022-08-23T14:12:31.550Z,41.39
2022-08-23T14:14:57.925Z,41.75
2022-08-23T14:17:24.307Z,42.05
2022-08-23T14:22:37.018Z,41.51
2022-08-23T14:25:03.367Z,41.88
2022-08-23T14:27:29.742Z,41.61
2022-08-23T14:29:56.114Z,41.55
2022-08-23T14:32:22.489Z,42.32
2022-08-23T14:34:48.853Z,41.93
2022-08-23T14:38:02.825Z,41.52
2022-08-23T14:40:01.619Z,41.78
2022-08-23T14:42:28.075Z,39.97
2022-08-23T14:44:54.434Z,41.41
2022-08-23T14:47:20.789Z,41.64
2022-08-23T14:49:49.013Z,41.06
2022-08-23T14:52:18.433Z,41.33
2022-08-23T14:54:44.810Z,41.65
2022-08-23T14:57:11.217Z,42.16
2022-08-23T14:59:37.572Z,41.50
2022-08-23T15:02:03.931Z,41.74
2022-08-23T15:04:34.091Z,41.73
2022-08-23T15:07:17.360Z,41.80
2022-08-23T15:09:44.836Z,41.95
2022-08-23T15:14:57.545Z,42.17
2022-08-23T15:17:28.766Z,42.12
2022-08-23T15:19:57.502Z,42.70
2022-08-23T15:22:23.885Z,42.45
2022-08-23T15:24:52.379Z,42.46
2022-08-23T15:27:18.740Z,42.47
2022-08-23T15:29:45.096Z,42.34
2022-08-23T15:32:12.649Z,42.82
2022-08-23T15:34:40.147Z,42.68
2022-08-23T15:37:12.105Z,42.94
2022-08-23T15:39:38.482Z,42.71
2022-08-23T15:42:04.840Z,42.64
2022-08-23T15:44:31.205Z,42.78
2022-08-23T15:46:57.557Z,42.93
2022-08-23T15:49:24.542Z,42.31
2022-08-23T15:51:50.914Z,42.54
2022-08-23T15:54:17.282Z,42.50
2022-08-23T15:56:43.645Z,42.56
2022-08-23T15:59:10.002Z,42.40
2022-08-23T16:01:36.406Z,42.34
2022-08-23T16:04:02.790Z,42.24
2022-08-23T16:06:32.145Z,42.56
2022-08-23T16:09:00.831Z,43.07
2022-08-23T16:11:27.182Z,42.66
2022-08-23T16:13:55.229Z,42.83
2022-08-23T16:16:22.188Z,42.77
2022-08-23T16:18:48.593Z,43.09
2022-08-23T16:21:14.968Z,43.29
2022-08-23T16:23:41.333Z,43.28
2022-08-23T16:26:07.697Z,43.39
2022-08-23T16:28:34.053Z,43.46
2022-08-23T16:31:00.454Z,43.17
2022-08-23T16:33:26.874Z,42.93
2022-08-23T16:35:53.231Z,43.10
2022-08-23T16:38:19.601Z,43.01
2022-08-23T16:40:45.964Z,43.11
2022-08-23T16:43:12.339Z,43.58
2022-08-23T16:45:38.724Z,42.83
2022-08-23T16:48:05.111Z,43.39
2022-08-23T16:50:31.476Z,42.94
2022-08-23T16:52:57.860Z,42.68
2022-08-23T16:55:24.218Z,43.32
2022-08-23T16:57:50.577Z,42.76
2022-08-23T17:00:16.933Z,42.90
2022-08-23T17:02:43.355Z,43.09
2022-08-23T17:05:09.723Z,42.81
2022-08-23T17:07:36.086Z,42.68
2022-08-23T17:10:02.445Z,43.26
2022-08-23T17:12:28.796Z,41.91
2022-08-23T17:14:55.155Z,41.84
2022-08-23T17:17:21.510Z,42.11
2022-08-23T17:19:47.874Z,42.73
2022-08-23T17:22:14.253Z,42.18
2022-08-23T17:24:40.615Z,42.29
2022-08-23T17:27:06.976Z,42.45
2022-08-23T17:29:37.299Z,42.35
2022-08-23T17:32:04.139Z,42.46
2022-08-23T17:34:30.577Z,42.41
2022-08-23T17:36:56.969Z,42.27
2022-08-23T17:39:23.331Z,42.68
2022-08-23T17:41:49.679Z,42.62
2022-08-23T17:44:16.040Z,42.88
2022-08-23T17:46:42.398Z,42.12
2022-08-23T17:49:08.757Z,42.23
2022-08-23T17:51:35.111Z,42.43
2022-08-23T17:54:01.465Z,41.85
2022-08-23T17:56:27.812Z,41.85
2022-08-23T17:58:54.164Z,41.48
2022-08-23T18:01:21.057Z,42.32
2022-08-23T18:03:47.452Z,41.88
2022-08-23T18:06:17.019Z,39.74
2022-08-23T18:08:43.744Z,40.58
2022-08-23T18:11:10.104Z,40.98
2022-08-23T18:13:36.459Z,40.88
2022-08-23T18:16:02.837Z,40.13
2022-08-23T18:18:29.223Z,40.05
2022-08-23T18:20:55.585Z,39.92
2022-08-23T18:23:21.956Z,39.75
2022-08-23T18:25:48.390Z,40.64
2022-08-23T18:28:14.739Z,39.41
2022-08-23T18:30:41.087Z,38.51
2022-08-23T18:33:07.455Z,38.96
2022-08-23T18:35:38.897Z,38.97
2022-08-23T18:38:05.269Z,39.49
2022-08-23T18:40:31.746Z,39.17
2022-08-23T18:42:58.203Z,39.88
2022-08-23T18:45:24.669Z,39.51
2022-08-23T18:47:51.053Z,39.65
2022-08-23T18:50:17.426Z,39.67
2022-08-23T18:52:43.790Z,39.80
2022-08-23T18:55:10.141Z,39.61
2022-08-23T18:57:36.523Z,39.47
2022-08-23T19:00:02.882Z,39.92
2022-08-23T19:02:29.305Z,39.68
2022-08-23T19:04:55.771Z,39.21
2022-08-23T19:07:22.132Z,39.56
2022-08-23T19:09:48.492Z,39.31
2022-08-23T19:12:14.861Z,39.42
2022-08-23T19:14:41.225Z,39.59
2022-08-23T19:17:07.580Z,39.75
2022-08-23T19:19:33.956Z,39.91
2022-08-23T19:22:00.312Z,39.59
2022-08-23T19:24:26.680Z,40.12
2022-08-23T19:26:53.034Z,40.19
2022-08-23T19:29:19.399Z,40.10
2022-08-23T19:31:45.790Z,39.71
2022-08-23T19:34:12.177Z,40.36
2022-08-23T19:36:49.064Z,38.66
2022-08-23T19:39:18.246Z,39.26
2022-08-23T19:41:44.599Z,39.11
2022-08-23T19:44:10.951Z,39.32
2022-08-23T19:46:37.321Z,38.14
2022-08-23T19:49:07.135Z,38.48
2022-08-23T19:51:33.704Z,38.72
2022-08-23T19:54:00.072Z,38.87
2022-08-23T19:56:26.446Z,37.40
2022-08-23T19:58:53.584Z,38.72
2022-08-23T20:01:19.989Z,38.54
2022-08-23T20:03:46.372Z,38.17
2022-08-23T20:06:17.753Z,37.16
2022-08-23T20:08:45.400Z,37.43
2022-08-23T20:11:11.751Z,37.62
2022-08-23T20:13:38.153Z,37.17
2022-08-23T20:16:04.576Z,37.14
2022-08-23T20:18:30.956Z,37.63
2022-08-23T20:20:57.327Z,38.34
2022-08-23T20:23:23.681Z,36.82
2022-08-23T20:25:50.041Z,36.96
2022-08-23T20:28:16.413Z,36.58
2022-08-23T20:30:42.768Z,36.62
2022-08-23T20:33:09.133Z,36.88
2022-08-23T20:35:35.500Z,37.33
2022-08-23T20:38:02.014Z,36.62
2022-08-23T20:40:28.537Z,37.45
2022-08-23T20:42:54.917Z,36.33
2022-08-23T20:45:21.292Z,37.69
2022-08-23T20:47:47.650Z,37.41
2022-08-23T20:50:14.004Z,37.17
2022-08-23T20:52:40.383Z,36.85
2022-08-23T20:55:07.840Z,37.11
2022-08-23T20:57:38.637Z,37.06
2022-08-23T21:00:05.072Z,36.63
2022-08-23T21:02:31.548Z,36.28
2022-08-23T21:04:58.019Z,37.10
2022-08-23T21:07:24.378Z,36.86
2022-08-23T21:09:54.275Z,36.07
2022-08-23T21:12:20.633Z,36.37
2022-08-23T21:14:47.002Z,36.42
2022-08-23T21:17:13.361Z,36.68
2022-08-23T21:19:39.771Z,36.34
2022-08-23T21:22:06.136Z,36.15
2022-08-23T21:24:32.492Z,36.20
2022-08-23T21:26:58.844Z,36.65
2022-08-23T21:29:25.215Z,36.31
2022-08-23T21:31:52.190Z,36.47
2022-08-23T21:34:18.553Z,36.55
2022-08-23T21:36:44.910Z,36.10
2022-08-23T21:39:11.269Z,36.43
2022-08-23T21:41:37.618Z,36.56
2022-08-23T21:44:03.988Z,36.62
2022-08-23T21:46:30.401Z,36.51
2022-08-23T21:48:56.821Z,36.20
2022-08-23T21:51:23.178Z,36.11
2022-08-23T21:53:49.531Z,36.92
2022-08-23T21:56:15.883Z,36.26
2022-08-23T21:58:42.234Z,36.47
2022-08-23T22:01:08.621Z,36.91
2022-08-23T22:03:35.197Z,36.16
2022-08-23T22:06:01.556Z,36.53
2022-08-23T22:08:27.915Z,36.14
2022-08-23T22:10:57.752Z,36.38
2022-08-23T22:13:24.664Z,36.30
2022-08-23T22:15:51.078Z,36.51
2022-08-23T22:18:17.480Z,36.37
2022-08-23T22:20:43.841Z,36.40
2022-08-23T22:23:10.195Z,36.97
2022-08-23T22:25:36.552Z,36.07
2022-08-23T22:28:02.856Z,36.84
2022-08-23T22:30:29.169Z,36.45
2022-08-23T22:32:55.500Z,36.42
2022-08-23T22:35:21.812Z,37.06
2022-08-23T22:38:10.246Z,36.65
2022-08-23T22:40:34.419Z,36.57
2022-08-23T22:43:00.723Z,36.85
2022-08-23T22:45:27.029Z,36.96
2022-08-23T22:47:53.345Z,36.60
2022-08-23T22:50:19.700Z,37.04
2022-08-23T22:52:46.059Z,37.04
2022-08-23T22:55:12.407Z,37.16
2022-08-23T22:57:38.783Z,36.86
2022-08-23T23:00:05.137Z,37.20
2022-08-23T23:02:31.566Z,37.27
2022-08-23T23:04:57.925Z,37.00
2022-08-23T23:07:24.281Z,37.53
2022-08-23T23:09:50.650Z,37.33
2022-08-23T23:12:17.002Z,37.37
2022-08-23T23:14:43.363Z,36.87
2022-08-23T23:17:09.762Z,37.08
2022-08-23T23:19:36.169Z,37.49
2022-08-23T23:22:02.519Z,36.95
2022-08-23T23:24:28.881Z,37.50
2022-08-23T23:26:55.239Z,37.07
2022-08-23T23:29:21.618Z,36.85
2022-08-23T23:31:47.968Z,37.03
2022-08-23T23:34:14.334Z,37.03
2022-08-23T23:36:40.693Z,37.17
2022-08-23T23:39:07.061Z,37.34
2022-08-23T23:41:33.424Z,37.13
2022-08-23T23:43:59.787Z,37.14
2022-08-23T23:46:26.211Z,36.98
2022-08-23T23:48:52.619Z,36.98
2022-08-23T23:51:19.041Z,37.20
2022-08-23T23:53:45.395Z,37.09
2022-08-23T23:56:11.750Z,37.15
2022-08-23T23:58:38.097Z,37.35
